createdAt,value
2019-03-30T00:01:41.117Z,76.34
2019-03-30T00:04:13.103Z,76.37
2019-03-30T00:06:45.626Z,75.81
2019-03-30T00:09:17.761Z,74.90
2019-03-30T00:11:50.157Z,75.29
2019-03-30T00:14:22.299Z,74.52
2019-03-30T00:16:54.570Z,75.56
2019-03-30T00:19:34.894Z,74.93
2019-03-30T00:22:00.383Z,74.90
2019-03-30T00:24:32.601Z,75.25
2019-03-30T00:27:04.715Z,76.45
2019-03-30T00:29:36.860Z,76.74
2019-03-30T00:32:09.340Z,76.36
2019-03-30T00:34:42.470Z,76.68
2019-03-30T00:37:14.687Z,76.26
2019-03-30T00:39:47.143Z,76.39
2019-03-30T00:42:19.851Z,76.34
2019-03-30T00:44:52.226Z,76.42
2019-03-30T00:47:24.354Z,76.96
2019-03-30T00:49:56.425Z,77.61
2019-03-30T00:52:28.493Z,78.71
2019-03-30T00:55:00.818Z,78.56
2019-03-30T00:57:32.882Z,79.07
2019-03-30T01:00:07.022Z,78.54
2019-03-30T01:02:39.232Z,78.06
2019-03-30T01:05:11.458Z,77.67
2019-03-30T01:07:43.617Z,77.88
2019-03-30T01:10:16.231Z,77.89
2019-03-30T01:12:48.292Z,77.99
2019-03-30T01:15:20.503Z,77.89
2019-03-30T01:17:52.715Z,77.69
2019-03-30T01:20:24.846Z,77.77
2019-03-30T01:22:57.310Z,77.04
2019-03-30T01:25:30.178Z,76.73
2019-03-30T01:28:02.264Z,76.69
2019-03-30T01:30:34.404Z,76.96
2019-03-30T01:33:06.619Z,76.63
2019-03-30T01:35:38.684Z,77.23
2019-03-30T01:38:11.114Z,77.24
2019-03-30T01:40:43.338Z,77.26
2019-03-30T01:43:15.419Z,77.70
2019-03-30T01:45:48.843Z,77.10
2019-03-30T01:48:20.971Z,77.24
2019-03-30T01:50:53.135Z,76.11
2019-03-30T01:53:26.501Z,77.07
2019-03-30T01:55:58.684Z,78.60
2019-03-30T01:58:30.737Z,77.49
2019-03-30T02:01:02.967Z,77.46
2019-03-30T02:03:35.291Z,78.34
2019-03-30T02:06:07.828Z,79.30
2019-03-30T02:08:39.888Z,79.33
2019-03-30T02:11:14.003Z,77.96
2019-03-30T02:13:46.906Z,78.22
2019-03-30T02:16:18.983Z,78.67
2019-03-30T02:18:51.381Z,79.42
2019-03-30T02:21:23.530Z,79.46
2019-03-30T02:23:55.658Z,79.64
2019-03-30T02:26:27.725Z,80.55
2019-03-30T02:28:59.922Z,81.94
2019-03-30T02:31:32.562Z,81.39
2019-03-30T02:34:04.619Z,81.29
2019-03-30T02:36:36.668Z,81.42
2019-03-30T02:39:09.763Z,80.92
2019-03-30T02:41:41.746Z,81.35
2019-03-30T02:44:14.488Z,80.66
2019-03-30T02:46:46.627Z,80.45
2019-03-30T02:49:18.748Z,79.74
2019-03-30T02:51:51.203Z,80.15
2019-03-30T02:54:23.583Z,80.50
2019-03-30T02:56:56.070Z,80.54
2019-03-30T02:59:28.049Z,81.31
2019-03-30T03:02:00.607Z,80.14
2019-03-30T03:04:32.804Z,80.01
2019-03-30T03:07:04.914Z,79.93
2019-03-30T03:09:37.413Z,79.38
2019-03-30T03:12:10.182Z,79.68
2019-03-30T03:14:42.322Z,80.25
2019-03-30T03:17:14.541Z,81.16
2019-03-30T03:19:46.912Z,81.62
2019-03-30T03:22:18.996Z,82.02
2019-03-30T03:24:51.052Z,81.69
2019-03-30T03:27:23.378Z,81.30
2019-03-30T03:29:55.727Z,81.73
2019-03-30T03:32:27.782Z,81.31
2019-03-30T03:34:59.833Z,81.69
2019-03-30T03:37:44.502Z,81.80
2019-03-30T03:40:09.541Z,81.22
2019-03-30T03:42:42.338Z,81.53
2019-03-30T03:45:14.556Z,81.39
2019-03-30T03:47:47.331Z,81.02
2019-03-30T03:50:45.978Z,80.75
2019-03-30T03:53:18.908Z,81.50
2019-03-30T03:55:53.466Z,81.87
2019-03-30T03:58:28.796Z,82.27
2019-03-30T04:01:02.987Z,82.39
2019-03-30T04:03:36.578Z,83.44
2019-03-30T04:06:09.643Z,83.33
2019-03-30T04:08:43.947Z,82.46
2019-03-30T04:11:18.695Z,81.81
2019-03-30T04:13:54.993Z,82.12
2019-03-30T04:16:27.170Z,83.10
2019-03-30T04:18:59.591Z,82.95
2019-03-30T04:21:43.879Z,82.91
2019-03-30T04:24:05.297Z,83.29
2019-03-30T04:26:37.254Z,83.68
2019-03-30T04:29:10.242Z,83.32
2019-03-30T04:31:42.667Z,84.06
2019-03-30T04:34:14.717Z,82.75
2019-03-30T04:36:46.669Z,82.44
2019-03-30T04:39:18.731Z,83.19
2019-03-30T04:41:50.826Z,83.92
2019-03-30T04:44:22.790Z,84.06
2019-03-30T04:46:55.103Z,82.77
2019-03-30T04:49:27.099Z,83.59
2019-03-30T04:51:59.466Z,84.00
2019-03-30T04:54:31.492Z,83.97
2019-03-30T04:57:03.574Z,84.97
2019-03-30T04:59:35.801Z,85.54
2019-03-30T05:02:07.766Z,85.23
2019-03-30T05:04:39.800Z,85.31
2019-03-30T05:07:12.175Z,85.74
2019-03-30T05:09:44.211Z,86.07
2019-03-30T05:12:16.252Z,86.31
2019-03-30T05:14:48.327Z,85.96
2019-03-30T05:17:20.827Z,85.60
2019-03-30T05:19:52.926Z,85.25
2019-03-30T05:22:24.983Z,85.67
2019-03-30T05:24:56.933Z,85.24
2019-03-30T05:27:29.431Z,85.63
2019-03-30T05:30:01.411Z,86.55
2019-03-30T05:32:33.341Z,86.76
2019-03-30T05:35:07.620Z,85.95
2019-03-30T05:37:40.206Z,85.47
2019-03-30T05:40:12.603Z,84.48
2019-03-30T05:42:44.664Z,82.90
2019-03-30T05:45:16.757Z,83.61
2019-03-30T05:47:48.718Z,83.79
2019-03-30T05:50:20.794Z,82.85
2019-03-30T05:52:52.759Z,81.90
2019-03-30T05:55:24.790Z,80.76
2019-03-30T05:57:56.756Z,79.20
2019-03-30T06:00:28.779Z,77.94
2019-03-30T06:03:00.751Z,76.65
2019-03-30T06:05:32.868Z,76.40
2019-03-30T06:08:05.157Z,74.42
2019-03-30T06:10:38.794Z,74.48
2019-03-30T06:13:11.280Z,74.09
2019-03-30T06:15:44.605Z,72.69
2019-03-30T06:18:16.946Z,72.33
2019-03-30T06:20:49.022Z,71.91
2019-03-30T06:23:21.036Z,72.85
2019-03-30T06:25:53.140Z,71.35
2019-03-30T06:28:25.122Z,69.23
2019-03-30T06:30:57.233Z,66.33
2019-03-30T06:33:29.301Z,65.60
2019-03-30T06:36:01.324Z,66.85
2019-03-30T06:38:33.362Z,68.17
2019-03-30T06:41:06.573Z,67.02
2019-03-30T06:43:38.672Z,64.95
2019-03-30T06:46:10.693Z,64.12
2019-03-30T06:48:42.771Z,63.48
2019-03-30T06:51:14.705Z,64.14
2019-03-30T06:53:47.167Z,64.95
2019-03-30T06:56:19.225Z,62.46
2019-03-30T06:58:51.247Z,61.86
2019-03-30T07:01:23.761Z,60.83
2019-03-30T07:03:56.389Z,61.35
2019-03-30T07:06:30.673Z,62.80
2019-03-30T07:09:05.657Z,61.71
2019-03-30T07:11:45.272Z,60.55
2019-03-30T07:14:17.441Z,58.99
2019-03-30T07:16:52.281Z,58.63
2019-03-30T07:19:28.842Z,58.14
2019-03-30T07:22:01.180Z,57.34
2019-03-30T07:24:33.255Z,55.87
2019-03-30T07:27:05.289Z,55.90
2019-03-30T07:29:37.349Z,56.97
2019-03-30T07:32:09.796Z,55.27
2019-03-30T07:34:42.015Z,55.67
2019-03-30T07:37:14.076Z,54.77
2019-03-30T07:39:46.132Z,52.30
2019-03-30T07:42:18.182Z,53.76
2019-03-30T07:44:50.369Z,51.64
2019-03-30T07:47:22.364Z,50.88
2019-03-30T07:49:55.185Z,50.41
2019-03-30T07:52:27.155Z,51.12
2019-03-30T07:55:00.474Z,50.68
2019-03-30T07:57:32.527Z,51.77
2019-03-30T08:00:05.036Z,51.35
2019-03-30T08:02:37.264Z,49.13
2019-03-30T08:05:10.056Z,49.56
2019-03-30T08:07:42.334Z,50.76
2019-03-30T08:10:15.084Z,48.33
2019-03-30T08:12:47.488Z,48.40
2019-03-30T08:15:19.602Z,48.40
2019-03-30T08:17:51.573Z,46.58
2019-03-30T08:20:24.759Z,46.69
2019-03-30T08:22:56.980Z,48.83
2019-03-30T08:25:29.072Z,47.87
2019-03-30T08:28:01.129Z,49.23
2019-03-30T08:30:33.195Z,48.74
2019-03-30T08:33:05.537Z,47.30
2019-03-30T08:35:37.705Z,48.77
2019-03-30T08:38:09.811Z,50.78
2019-03-30T08:40:42.164Z,46.63
2019-03-30T08:43:14.135Z,45.30
2019-03-30T08:45:48.922Z,49.75
2019-03-30T08:48:19.948Z,50.26
2019-03-30T08:50:52.425Z,46.74
2019-03-30T08:53:24.556Z,46.92
2019-03-30T08:55:56.664Z,48.25
2019-03-30T08:58:28.906Z,46.92
2019-03-30T09:01:01.094Z,44.99
2019-03-30T09:03:34.113Z,47.20
2019-03-30T09:06:06.486Z,48.34
2019-03-30T09:08:38.519Z,48.50
2019-03-30T09:11:10.671Z,45.61
2019-03-30T09:13:42.658Z,42.98
2019-03-30T09:16:14.614Z,43.84
2019-03-30T09:18:46.929Z,43.39
2019-03-30T09:21:18.984Z,47.42
2019-03-30T09:23:50.980Z,44.87
2019-03-30T09:26:23.515Z,41.24
2019-03-30T09:28:55.805Z,40.26
2019-03-30T09:31:27.921Z,38.01
2019-03-30T09:34:00.088Z,37.86
2019-03-30T09:36:32.272Z,38.61
2019-03-30T09:39:05.573Z,40.12
2019-03-30T09:41:37.624Z,37.37
2019-03-30T09:44:10.853Z,37.52
2019-03-30T09:46:43.178Z,36.01
2019-03-30T09:49:15.186Z,38.55
2019-03-30T09:51:47.577Z,37.52
2019-03-30T09:54:23.844Z,36.74
2019-03-30T09:56:54.403Z,36.49
2019-03-30T09:59:26.366Z,35.63
2019-03-30T10:01:58.640Z,36.01
2019-03-30T10:04:30.789Z,36.91
2019-03-30T10:07:02.858Z,38.15
2019-03-30T10:09:35.389Z,36.62
2019-03-30T10:12:09.055Z,35.94
2019-03-30T10:14:41.577Z,37.62
2019-03-30T10:17:13.640Z,35.28
2019-03-30T10:19:53.019Z,38.76
2019-03-30T10:22:19.558Z,36.14
2019-03-30T10:24:51.677Z,34.95
2019-03-30T10:27:23.790Z,34.35
2019-03-30T10:29:55.918Z,35.63
2019-03-30T10:32:28.002Z,34.10
2019-03-30T10:35:00.056Z,32.39
2019-03-30T10:37:32.118Z,33.57
2019-03-30T10:40:04.885Z,32.96
2019-03-30T10:42:37.042Z,34.06
2019-03-30T10:45:10.363Z,35.45
2019-03-30T10:47:42.757Z,31.32
2019-03-30T10:50:15.000Z,32.22
2019-03-30T10:52:47.152Z,32.49
2019-03-30T10:55:19.337Z,34.98
2019-03-30T10:57:51.456Z,33.43
2019-03-30T11:00:42.704Z,32.67
2019-03-30T11:03:14.880Z,30.47
2019-03-30T11:05:47.048Z,31.57
2019-03-30T11:08:19.682Z,33.24
2019-03-30T11:10:51.833Z,35.53
2019-03-30T11:13:23.983Z,32.31
2019-03-30T11:15:56.149Z,31.52
2019-03-30T11:18:28.226Z,31.24
2019-03-30T11:21:00.357Z,34.22
2019-03-30T11:23:32.425Z,35.44
2019-03-30T11:26:04.686Z,30.23
2019-03-30T11:28:36.696Z,30.90
2019-03-30T11:31:08.860Z,32.11
2019-03-30T11:33:41.180Z,32.99
2019-03-30T11:36:13.536Z,30.77
2019-03-30T11:38:46.116Z,31.41
2019-03-30T11:41:18.090Z,33.52
2019-03-30T11:43:50.138Z,33.55
2019-03-30T11:46:22.385Z,31.48
2019-03-30T11:48:54.557Z,31.91
2019-03-30T11:51:26.648Z,31.69
2019-03-30T11:53:59.090Z,32.00
2019-03-30T11:56:31.477Z,30.78
2019-03-30T11:59:03.468Z,30.42
2019-03-30T12:01:35.634Z,29.59
2019-03-30T12:04:07.713Z,30.65
2019-03-30T12:06:40.036Z,28.38
2019-03-30T12:09:13.021Z,29.37
2019-03-30T12:11:45.058Z,28.25
2019-03-30T12:14:17.057Z,34.91
2019-03-30T12:16:49.255Z,30.08
2019-03-30T12:19:21.473Z,29.97
2019-03-30T12:21:53.739Z,32.49
2019-03-30T12:24:26.042Z,32.32
2019-03-30T12:26:58.168Z,30.67
2019-03-30T12:29:30.258Z,30.71
2019-03-30T12:32:02.551Z,30.66
2019-03-30T12:34:34.760Z,28.99
2019-03-30T12:37:06.805Z,29.32
2019-03-30T12:39:38.965Z,29.92
2019-03-30T12:42:11.514Z,26.32
2019-03-30T12:44:43.674Z,27.76
2019-03-30T12:47:17.050Z,30.19
2019-03-30T12:49:49.121Z,29.32
2019-03-30T12:52:21.342Z,28.75
2019-03-30T12:54:53.573Z,27.44
2019-03-30T12:57:26.358Z,27.71
2019-03-30T12:59:59.807Z,27.50
2019-03-30T13:02:33.273Z,28.54
2019-03-30T13:07:40.688Z,29.71
2019-03-30T13:10:12.998Z,31.11
2019-03-30T13:12:44.976Z,29.86
2019-03-30T13:15:17.183Z,29.14
2019-03-30T13:17:49.248Z,28.71
2019-03-30T13:20:21.325Z,28.37
2019-03-30T13:22:53.281Z,27.95
2019-03-30T13:25:25.910Z,28.84
2019-03-30T13:27:58.277Z,28.39
2019-03-30T13:30:30.365Z,29.54
2019-03-30T13:33:02.934Z,28.55
2019-03-30T13:35:35.945Z,28.29
2019-03-30T13:38:08.062Z,29.96
2019-03-30T13:40:40.077Z,30.05
2019-03-30T13:43:12.613Z,29.24
2019-03-30T13:45:44.754Z,29.52
2019-03-30T13:48:16.892Z,28.21
2019-03-30T13:50:48.893Z,27.81
2019-03-30T13:53:20.956Z,30.01
2019-03-30T13:55:53.541Z,30.32
2019-03-30T13:58:25.716Z,29.03
2019-03-30T14:00:57.840Z,28.40
2019-03-30T14:03:29.963Z,26.91
2019-03-30T14:06:03.058Z,27.37
2019-03-30T14:08:35.033Z,27.29
2019-03-30T14:11:07.104Z,27.42
2019-03-30T14:13:39.205Z,27.81
2019-03-30T14:16:11.271Z,30.97
2019-03-30T14:18:43.932Z,30.12
2019-03-30T14:21:17.570Z,27.51
2019-03-30T14:23:49.975Z,26.57
2019-03-30T14:26:31.357Z,27.07
2019-03-30T14:28:55.844Z,29.00
2019-03-30T14:31:27.889Z,28.51
2019-03-30T14:33:59.979Z,27.71
2019-03-30T14:36:32.057Z,26.83
2019-03-30T14:39:05.394Z,27.93
2019-03-30T14:41:39.113Z,28.82
2019-03-30T14:44:11.601Z,28.85
2019-03-30T14:46:43.964Z,29.00
2019-03-30T14:49:16.745Z,28.16
2019-03-30T14:51:48.795Z,28.32
2019-03-30T14:54:21.142Z,28.28
2019-03-30T14:56:53.696Z,29.22
2019-03-30T14:59:25.965Z,28.48
2019-03-30T15:01:58.134Z,30.10
2019-03-30T15:04:30.478Z,29.47
2019-03-30T15:07:02.485Z,28.18
2019-03-30T15:09:34.429Z,28.50
2019-03-30T15:12:06.765Z,28.92
2019-03-30T15:14:38.819Z,28.86
2019-03-30T15:17:10.791Z,27.84
2019-03-30T15:19:43.133Z,28.48
2019-03-30T15:22:15.197Z,28.05
2019-03-30T15:24:47.227Z,27.30
2019-03-30T15:27:19.224Z,26.98
2019-03-30T15:29:51.274Z,26.90
2019-03-30T15:32:23.519Z,26.90
2019-03-30T15:34:58.201Z,26.73
2019-03-30T15:37:29.392Z,27.05
2019-03-30T15:40:01.741Z,27.29
2019-03-30T15:42:33.807Z,26.89
2019-03-30T15:45:07.025Z,27.20
2019-03-30T15:47:39.286Z,27.53
2019-03-30T15:50:12.632Z,28.87
2019-03-30T15:52:44.929Z,29.83
2019-03-30T15:55:17.241Z,30.05
2019-03-30T15:57:49.668Z,29.87
2019-03-30T16:00:22.159Z,29.77
2019-03-30T16:02:54.343Z,30.71
2019-03-30T16:05:26.601Z,29.95
2019-03-30T16:07:58.665Z,30.26
2019-03-30T16:10:31.174Z,30.26
2019-03-30T16:13:03.284Z,30.81
2019-03-30T16:15:35.485Z,31.30
2019-03-30T16:18:07.638Z,32.04
2019-03-30T16:20:40.398Z,32.21
2019-03-30T16:23:13.022Z,31.60
2019-03-30T16:25:46.081Z,31.77
2019-03-30T16:28:18.225Z,32.96
2019-03-30T16:30:50.714Z,33.17
2019-03-30T16:33:22.835Z,32.99
2019-03-30T16:35:54.841Z,32.71
2019-03-30T16:38:26.991Z,32.30
2019-03-30T16:40:59.337Z,32.97
2019-03-30T16:43:31.464Z,33.03
2019-03-30T16:46:03.664Z,33.42
2019-03-30T16:48:35.777Z,33.54
2019-03-30T16:51:07.849Z,33.63
2019-03-30T16:53:41.331Z,34.01
2019-03-30T16:56:13.522Z,34.78
2019-03-30T16:58:45.566Z,35.17
2019-03-30T17:01:17.989Z,35.81
2019-03-30T17:03:49.959Z,36.00
2019-03-30T17:06:21.996Z,36.29
2019-03-30T17:08:55.456Z,37.38
2019-03-30T17:11:28.737Z,39.76
2019-03-30T17:14:00.830Z,41.01
2019-03-30T17:16:32.845Z,41.57
2019-03-30T17:19:05.427Z,42.88
2019-03-30T17:21:37.522Z,44.11
2019-03-30T17:24:09.687Z,44.59
2019-03-30T17:26:41.812Z,46.58
2019-03-30T17:29:14.074Z,46.57
2019-03-30T17:31:46.152Z,47.93
2019-03-30T17:34:18.559Z,49.15
2019-03-30T17:36:50.650Z,48.89
2019-03-30T17:39:23.015Z,50.97
2019-03-30T17:41:55.130Z,52.11
2019-03-30T17:44:27.475Z,53.57
2019-03-30T17:46:59.857Z,55.10
2019-03-30T17:49:32.322Z,55.27
2019-03-30T17:52:04.469Z,56.33
2019-03-30T17:54:39.682Z,56.65
2019-03-30T17:57:10.309Z,56.48
2019-03-30T17:59:42.672Z,57.25
2019-03-30T18:02:14.737Z,58.05
2019-03-30T18:04:47.490Z,58.77
2019-03-30T18:07:19.840Z,58.89
2019-03-30T18:09:51.877Z,59.68
2019-03-30T18:12:23.867Z,59.59
2019-03-30T18:14:55.914Z,59.76
2019-03-30T18:17:28.896Z,60.33
2019-03-30T18:20:00.865Z,61.27
2019-03-30T18:22:34.063Z,61.08
2019-03-30T18:25:07.311Z,60.86
2019-03-30T18:27:39.401Z,60.91
2019-03-30T18:30:12.467Z,60.54
2019-03-30T18:32:45.184Z,59.42
2019-03-30T18:35:17.430Z,58.91
2019-03-30T18:37:50.262Z,58.30
2019-03-30T18:40:33.132Z,57.91
2019-03-30T18:43:06.363Z,57.44
2019-03-30T18:45:38.491Z,57.39
2019-03-30T18:48:18.345Z,57.58
2019-03-30T18:50:50.931Z,58.35
2019-03-30T18:53:23.811Z,58.04
2019-03-30T18:55:55.900Z,59.06
2019-03-30T18:58:41.005Z,59.59
2019-03-30T19:01:02.492Z,59.05
2019-03-30T19:03:34.531Z,58.61
2019-03-30T19:06:06.804Z,58.58
2019-03-30T19:08:38.883Z,59.00
2019-03-30T19:11:11.028Z,59.12
2019-03-30T19:13:43.508Z,59.18
2019-03-30T19:16:16.692Z,59.84
2019-03-30T19:18:48.917Z,58.73
2019-03-30T19:21:21.175Z,58.72
2019-03-30T19:23:53.259Z,59.51
2019-03-30T19:26:25.330Z,60.28
2019-03-30T19:28:57.348Z,60.74
2019-03-30T19:31:29.423Z,60.78
2019-03-30T19:34:01.394Z,61.14
2019-03-30T19:36:33.453Z,60.75
2019-03-30T19:39:08.877Z,59.38
2019-03-30T19:41:40.909Z,58.93
2019-03-30T19:44:13.063Z,58.80
2019-03-30T19:46:45.128Z,58.08
2019-03-30T19:49:17.614Z,57.52
2019-03-30T19:51:49.895Z,59.03
2019-03-30T19:54:22.233Z,59.80
2019-03-30T19:56:54.385Z,61.44
2019-03-30T19:59:26.366Z,62.17
2019-03-30T20:01:58.483Z,62.06
2019-03-30T20:04:31.022Z,61.80
2019-03-30T20:07:03.419Z,60.27
2019-03-30T20:09:35.645Z,59.72
2019-03-30T20:12:07.804Z,60.14
2019-03-30T20:14:40.103Z,59.45
2019-03-30T20:17:12.380Z,60.34
2019-03-30T20:19:44.320Z,60.70
2019-03-30T20:22:16.293Z,60.57
2019-03-30T20:24:48.327Z,60.29
2019-03-30T20:27:20.281Z,60.69
2019-03-30T20:29:52.313Z,60.71
2019-03-30T20:32:24.936Z,61.54
2019-03-30T20:34:56.904Z,62.30
2019-03-30T20:37:28.861Z,62.95
2019-03-30T20:40:00.808Z,63.49
2019-03-30T20:42:32.985Z,63.59
2019-03-30T20:45:06.685Z,63.66
2019-03-30T20:47:39.745Z,63.80
2019-03-30T20:50:12.570Z,64.05
2019-03-30T20:52:44.628Z,64.34
2019-03-30T20:55:16.629Z,65.06
2019-03-30T20:57:48.841Z,64.50
2019-03-30T21:00:21.649Z,64.00
2019-03-30T21:02:53.617Z,63.94
2019-03-30T21:05:27.402Z,64.78
2019-03-30T21:07:59.428Z,65.15
2019-03-30T21:10:31.739Z,65.57
2019-03-30T21:13:03.778Z,66.23
2019-03-30T21:15:35.795Z,66.44
2019-03-30T21:18:07.905Z,65.87
2019-03-30T21:20:39.934Z,65.44
2019-03-30T21:23:12.389Z,65.23
2019-03-30T21:25:44.597Z,64.26
2019-03-30T21:28:16.903Z,65.01
2019-03-30T21:30:48.905Z,66.02
2019-03-30T21:33:20.966Z,66.82
2019-03-30T21:35:53.038Z,67.75
2019-03-30T21:38:25.281Z,68.37
2019-03-30T21:40:58.500Z,69.19
2019-03-30T21:43:30.855Z,70.00
2019-03-30T21:46:02.798Z,69.93
2019-03-30T21:48:34.861Z,70.11
2019-03-30T21:51:07.243Z,70.22
2019-03-30T21:53:39.278Z,70.48
2019-03-30T21:56:11.236Z,70.47
2019-03-30T21:58:43.460Z,70.12
2019-03-30T22:01:15.587Z,70.43
2019-03-30T22:03:47.798Z,69.14
2019-03-30T22:06:20.565Z,68.57
2019-03-30T22:08:54.003Z,68.40
2019-03-30T22:11:25.931Z,68.03
2019-03-30T22:13:58.175Z,66.85
2019-03-30T22:16:30.126Z,66.45
2019-03-30T22:19:02.269Z,67.27
2019-03-30T22:21:34.455Z,68.38
2019-03-30T22:24:06.656Z,67.87
2019-03-30T22:26:38.998Z,68.48
2019-03-30T22:29:11.138Z,68.65
2019-03-30T22:31:43.201Z,69.38
2019-03-30T22:34:15.221Z,70.21
2019-03-30T22:36:47.192Z,70.68
2019-03-30T22:39:19.134Z,70.05
2019-03-30T22:41:51.080Z,69.86
2019-03-30T22:44:23.099Z,69.38
2019-03-30T22:46:55.124Z,69.33
2019-03-30T22:49:27.179Z,69.11
2019-03-30T22:51:59.237Z,69.48
2019-03-30T22:54:31.301Z,69.65
2019-03-30T22:57:03.276Z,69.43
2019-03-30T22:59:35.205Z,69.56
2019-03-30T23:02:07.647Z,70.08
2019-03-30T23:04:39.953Z,70.13
2019-03-30T23:07:11.902Z,69.76
2019-03-30T23:09:44.720Z,70.23
2019-03-30T23:12:17.030Z,70.15
2019-03-30T23:14:50.696Z,70.19
2019-03-30T23:17:22.752Z,70.17
2019-03-30T23:19:55.784Z,69.79
2019-03-30T23:22:27.718Z,70.57
2019-03-30T23:24:59.807Z,70.98
2019-03-30T23:27:31.760Z,70.88
2019-03-30T23:30:05.475Z,71.35
2019-03-30T23:32:37.499Z,72.12
2019-03-30T23:35:10.015Z,72.01
2019-03-30T23:37:42.000Z,72.14
2019-03-30T23:40:14.491Z,73.70
2019-03-30T23:42:46.632Z,74.40
2019-03-30T23:45:18.750Z,74.57
2019-03-30T23:47:50.787Z,74.53
2019-03-30T23:50:22.819Z,74.60
2019-03-30T23:52:54.967Z,74.41
2019-03-30T23:55:27.069Z,74.87
2019-03-30T23:57:59.018Z,74.43
